Time;durP1;ratioP1;P1;durP2;ratioP2;P2;SDS_P1;SDS_P2;PMS_P1;PMS_P2;Temp;Humidity;BMP_temperature;BMP_pressure;BME280_temperature;BME280_humidity;BME280_pressure;Samples;Min_cycle;Max_cycle;Signal;HPM_P1;HPM_P2
2021/01/26 06:37:49;;;;;;;4.88;3.35;;;5.70;99.90;;;;;;6078064;23;20552;-83
2021/01/26 06:40:42;;;;;;;9.57;5.88;;;5.70;99.90;;;;;;6115686;23;21035;-80
2021/01/26 06:43:55;;;;;;;7.70;4.45;;;5.60;99.90;;;;;;6182152;23;20130;-82
2021/01/26 06:46:43;;;;;;;4.57;3.45;;;5.60;99.90;;;;;;6061797;23;20152;-80
2021/01/26 06:49:39;;;;;;;8.00;4.13;;;5.60;99.90;;;;;;6062206;23;20616;-82
2021/01/26 06:52:19;;;;;;;9.88;3.78;;;5.70;99.90;;;;;;6161503;23;20235;-81
2021/01/26 06:55:06;;;;;;;5.32;3.92;;;5.60;99.90;;;;;;6182272;23;20133;-80
2021/01/26 06:58:10;;;;;;;4.05;3.65;;;5.60;99.90;;;;;;6182278;23;20174;-81
2021/01/26 07:00:50;;;;;;;11.63;6.43;;;5.60;99.90;;;;;;6182951;23;20172;-81
2021/01/26 07:03:46;;;;;;;10.13;6.03;;;5.60;99.90;;;;;;6155904;23;20141;-83
2021/01/26 07:06:21;;;;;;;10.38;4.80;;;5.50;99.90;;;;;;6182432;23;20188;-82
2021/01/26 07:09:25;;;;;;;6.60;4.70;;;5.50;99.90;;;;;;6182320;23;20690;-82
2021/01/26 07:12:29;;;;;;;7.85;5.45;;;5.50;99.90;;;;;;6155925;23;20158;-81
2021/01/26 07:15:32;;;;;;;6.88;4.63;;;5.50;99.90;;;;;;6076346;23;20152;-81
2021/01/26 07:18:06;;;;;;;7.68;4.25;;;5.60;99.90;;;;;;6181967;23;20165;-80
2021/01/26 07:20:53;;;;;;;8.45;4.30;;;5.60;99.90;;;;;;6155834;23;20134;-81
2021/01/26 07:23:44;;;;;;;6.88;4.40;;;5.60;99.90;;;;;;6181759;23;20142;-80
2021/01/26 07:26:26;;;;;;;12.25;4.53;;;5.60;99.90;;;;;;6182099;23;20146;-82
2021/01/26 07:29:27;;;;;;;8.23;4.85;;;5.60;99.90;;;;;;6182460;23;20213;-80
2021/01/26 07:32:03;;;;;;;7.32;3.20;;;5.60;99.90;;;;;;6182524;23;20199;-81
2021/01/26 07:34:54;;;;;;;7.65;4.60;;;5.60;99.90;;;;;;6182352;23;20161;-81
2021/01/26 07:37:25;;;;;;;5.07;4.43;;;5.50;99.90;;;;;;6181882;23;20257;-80
2021/01/26 07:40:15;;;;;;;5.47;4.57;;;5.50;99.90;;;;;;6131309;23;20152;-80
2021/01/26 07:42:54;;;;;;;12.27;5.80;;;5.50;99.90;;;;;;6157328;23;20134;-82
2021/01/26 07:45:36;;;;;;;11.60;6.18;;;5.50;99.90;;;;;;6156088;23;20209;-82
2021/01/26 07:48:09;;;;;;;13.65;6.78;;;5.50;99.90;;;;;;6156245;23;20219;-81
2021/01/26 07:50:48;;;;;;;8.02;5.07;;;5.60;99.90;;;;;;6184000;23;20502;-81
2021/01/26 07:53:40;;;;;;;11.98;6.43;;;5.70;99.90;;;;;;6183488;23;20158;-81
2021/01/26 07:56:32;;;;;;;11.93;5.70;;;5.70;99.90;;;;;;6157821;23;20209;-81
2021/01/26 07:59:01;;;;;;;12.98;5.80;;;5.70;99.90;;;;;;6133248;23;20142;-81
2021/01/26 08:01:34;;;;;;;7.47;5.05;;;5.70;99.90;;;;;;6157672;23;20177;-83
2021/01/26 08:04:04;;;;;;;6.93;4.60;;;5.70;99.90;;;;;;6132650;23;20150;-80
2021/01/26 08:06:35;;;;;;;5.78;4.90;;;5.70;99.90;;;;;;6183354;23;20176;-81
2021/01/26 08:09:04;;;;;;;7.50;5.55;;;5.70;99.90;;;;;;6157432;23;20162;-80
2021/01/26 08:11:30;;;;;;;6.95;4.70;;;5.80;99.90;;;;;;6184072;23;20224;-80
2021/01/26 08:13:59;;;;;;;9.65;6.22;;;5.80;99.90;;;;;;6184075;23;20177;-81
2021/01/26 08:16:31;;;;;;;11.85;5.57;;;5.80;99.90;;;;;;6157827;23;20149;-81
2021/01/26 08:19:00;;;;;;;6.40;4.80;;;5.80;99.90;;;;;;6159848;23;20610;-81
2021/01/26 08:21:43;;;;;;;7.15;3.22;;;5.70;99.90;;;;;;6183228;23;20232;-81
2021/01/26 08:24:21;;;;;;;8.85;4.80;;;5.70;99.90;;;;;;6182583;23;20134;-81
2021/01/26 08:26:49;;;;;;;7.85;5.05;;;5.80;99.90;;;;;;6132167;23;20173;-81
2021/01/26 08:29:38;;;;;;;9.13;5.32;;;5.80;99.90;;;;;;6156857;23;20138;-80
2021/01/26 08:32:22;;;;;;;8.50;3.25;;;5.80;99.90;;;;;;6167958;23;20182;-80
2021/01/26 08:35:09;;;;;;;7.25;4.57;;;5.80;99.90;;;;;;6182885;23;20145;-80
2021/01/26 08:37:41;;;;;;;7.53;4.30;;;5.90;99.90;;;;;;6156570;23;20522;-80
2021/01/26 08:40:16;;;;;;;14.70;5.22;;;5.90;99.90;;;;;;6157043;23;20172;-80
2021/01/26 08:42:42;;;;;;;7.28;3.55;;;6.00;99.90;;;;;;6156354;23;20148;-79
2021/01/26 08:45:24;;;;;;;7.37;3.70;;;6.00;99.90;;;;;;6183195;23;20154;-79
2021/01/26 08:47:58;;;;;;;6.10;3.95;;;6.00;99.90;;;;;;6182792;23;20547;-79
2021/01/26 08:50:25;;;;;;;7.65;4.07;;;6.00;99.90;;;;;;6156836;23;20632;-79
2021/01/26 08:52:53;;;;;;;10.10;4.30;;;6.00;99.90;;;;;;6156198;23;20260;-80
2021/01/26 08:55:40;;;;;;;10.60;5.05;;;6.00;99.90;;;;;;6186372;23;20204;-80
2021/01/26 08:58:44;;;;;;;5.90;4.05;;;6.00;99.90;;;;;;6182671;23;20244;-79
2021/01/26 09:01:23;;;;;;;5.45;4.53;;;6.00;99.90;;;;;;6156936;23;20176;-79
2021/01/26 09:04:19;;;;;;;8.70;4.22;;;6.00;99.90;;;;;;6182336;23;20153;-79
2021/01/26 09:06:47;;;;;;;6.68;3.63;;;6.00;99.90;;;;;;6182784;23;20554;-80
2021/01/26 09:09:19;;;;;;;4.30;3.08;;;6.00;99.90;;;;;;6107337;23;20254;-79
2021/01/26 09:11:44;;;;;;;8.85;3.35;;;6.10;99.90;;;;;;6182883;23;20173;-79
2021/01/26 09:14:38;;;;;;;9.77;4.87;;;6.10;99.90;;;;;;6182338;23;20146;-80
2021/01/26 09:17:09;;;;;;;5.85;4.13;;;6.10;99.90;;;;;;6156459;23;20219;-80
2021/01/26 09:19:47;;;;;;;6.03;4.65;;;6.20;99.90;;;;;;6182788;23;20221;-79
2021/01/26 09:22:19;;;;;;;6.20;4.05;;;6.20;99.90;;;;;;6182904;23;20142;-80
2021/01/26 09:24:47;;;;;;;10.75;5.43;;;6.20;99.90;;;;;;6182090;23;20189;-80
2021/01/26 09:27:21;;;;;;;7.05;4.47;;;6.30;99.90;;;;;;6156528;23;20177;-80
2021/01/26 09:30:00;;;;;;;9.95;4.80;;;6.30;99.90;;;;;;6156678;23;20221;-80
2021/01/26 09:32:26;;;;;;;8.57;5.15;;;6.30;99.90;;;;;;6186023;23;20162;-79
2021/01/26 09:34:52;;;;;;;10.50;4.73;;;6.30;99.90;;;;;;6182481;23;20456;-80
2021/01/26 09:37:24;;;;;;;9.77;5.40;;;6.30;99.90;;;;;;6156145;23;20593;-79
2021/01/26 09:39:50;;;;;;;5.35;4.18;;;6.40;99.90;;;;;;6182523;23;20225;-79
2021/01/26 09:42:21;;;;;;;8.27;4.43;;;6.40;99.90;;;;;;6156412;23;20157;-80
2021/01/26 09:45:00;;;;;;;8.07;4.78;;;6.40;99.90;;;;;;6181588;23;20212;-80
2021/01/26 09:47:28;;;;;;;9.23;5.15;;;6.50;99.90;;;;;;6183034;23;20197;-80
2021/01/26 09:50:09;;;;;;;6.43;4.93;;;6.60;99.90;;;;;;6131967;23;20148;-78
2021/01/26 09:52:36;;;;;;;8.68;5.43;;;6.70;99.90;;;;;;6182420;23;20180;-78
2021/01/26 09:55:14;;;;;;;8.77;3.90;;;6.70;99.90;;;;;;6156526;23;20145;-79
2021/01/26 09:57:41;;;;;;;3.60;3.05;;;6.70;99.90;;;;;;6182055;23;20166;-79
2021/01/26 10:00:14;;;;;;;5.50;4.80;;;6.80;99.90;;;;;;6156274;23;20588;-78
2021/01/26 10:02:42;;;;;;;5.60;4.25;;;6.80;99.90;;;;;;6155221;23;20495;-78
2021/01/26 10:05:13;;;;;;;7.70;4.32;;;6.90;99.90;;;;;;6182840;23;20532;-78
2021/01/26 10:07:40;;;;;;;5.15;4.65;;;7.00;99.90;;;;;;6182243;23;20172;-78
2021/01/26 10:10:27;;;;;;;6.20;4.03;;;7.10;99.90;;;;;;6160573;23;20164;-79
2021/01/26 10:12:53;;;;;;;5.70;3.95;;;7.10;99.90;;;;;;6155811;23;20543;-79
2021/01/26 10:15:30;;;;;;;10.50;4.03;;;7.10;99.90;;;;;;6156084;23;20166;-77
2021/01/26 10:17:58;;;;;;;6.47;4.15;;;7.20;99.90;;;;;;6182185;23;20172;-78
2021/01/26 10:20:31;;;;;;;6.32;4.53;;;7.30;99.90;;;;;;6182456;23;20146;-78
2021/01/26 10:23:09;;;;;;;4.78;4.25;;;7.40;99.90;;;;;;6155530;23;20555;-77
2021/01/26 10:25:36;;;;;;;5.95;4.55;;;7.50;99.90;;;;;;6156020;23;20518;-77
2021/01/26 10:28:26;;;;;;;9.20;5.80;;;7.60;99.90;;;;;;6182080;23;20292;-77
2021/01/26 10:30:55;;;;;;;8.35;5.35;;;7.60;99.90;;;;;;6144818;23;20172;-77
2021/01/26 10:33:38;;;;;;;5.65;4.70;;;7.60;99.90;;;;;;6155536;23;20177;-77
2021/01/26 10:36:23;;;;;;;9.68;5.43;;;7.70;99.90;;;;;;6155931;23;20145;-77
2021/01/26 10:38:49;;;;;;;6.75;4.78;;;7.60;99.90;;;;;;6132276;23;20694;-79
2021/01/26 10:41:26;;;;;;;8.60;4.80;;;7.60;99.90;;;;;;6156049;23;20146;-79
2021/01/26 10:44:10;;;;;;;6.82;4.63;;;7.60;99.90;;;;;;6155041;23;20510;-79
2021/01/26 10:46:39;;;;;;;4.82;4.32;;;7.50;99.90;;;;;;6158991;23;20173;-78
2021/01/26 10:49:29;;;;;;;6.50;4.75;;;7.50;99.90;;;;;;6182669;23;20130;-78
2021/01/26 10:51:57;;;;;;;6.95;4.50;;;7.60;99.90;;;;;;6183051;23;20248;-80
2021/01/26 10:54:23;;;;;;;9.55;4.95;;;7.60;99.90;;;;;;6156460;23;20142;-79
2021/01/26 10:56:49;;;;;;;8.07;5.43;;;7.80;99.90;;;;;;6131654;23;20635;-80
2021/01/26 10:59:16;;;;;;;7.45;5.25;;;7.80;99.90;;;;;;6156094;23;20149;-79
2021/01/26 11:01:43;;;;;;;12.27;4.65;;;7.80;99.90;;;;;;6182435;23;20473;-77
2021/01/26 11:04:10;;;;;;;7.68;4.53;;;7.90;99.90;;;;;;6181642;23;20146;-78
2021/01/26 11:06:36;;;;;;;4.32;3.45;;;7.90;99.90;;;;;;6155782;23;20165;-78
2021/01/26 11:09:04;;;;;;;9.88;4.60;;;7.90;99.90;;;;;;6155610;23;20600;-78
2021/01/26 11:11:31;;;;;;;5.00;4.05;;;7.90;99.90;;;;;;6155325;23;20142;-78
2021/01/26 11:13:58;;;;;;;8.32;5.72;;;7.90;99.90;;;;;;6130783;23;20169;-77
2021/01/26 11:16:25;;;;;;;8.73;4.55;;;7.80;99.90;;;;;;6181372;23;20134;-78
2021/01/26 11:18:51;;;;;;;6.85;4.25;;;7.80;99.90;;;;;;6155862;23;20153;-78
2021/01/26 11:21:18;;;;;;;8.52;4.18;;;7.80;99.90;;;;;;6181852;23;20401;-78
2021/01/26 11:23:44;;;;;;;6.78;3.65;;;7.80;99.90;;;;;;6185673;23;20154;-78
2021/01/26 11:26:15;;;;;;;7.53;4.22;;;7.80;99.90;;;;;;6183002;23;20149;-79
2021/01/26 11:28:42;;;;;;;5.55;3.30;;;7.90;99.90;;;;;;6183880;23;20164;-76
2021/01/26 11:31:08;;;;;;;6.90;4.82;;;7.90;99.90;;;;;;6157424;23;20215;-76
2021/01/26 11:33:35;;;;;;;7.53;4.75;;;8.00;99.90;;;;;;6183597;23;20292;-80
2021/01/26 11:36:04;;;;;;;7.43;5.13;;;8.10;99.90;;;;;;6182944;23;20148;-79
2021/01/26 11:38:30;;;;;;;6.72;4.30;;;8.10;99.90;;;;;;6157613;23;20662;-78
2021/01/26 11:40:57;;;;;;;11.25;6.40;;;8.20;99.90;;;;;;6183605;23;20146;-78
2021/01/26 11:43:23;;;;;;;16.25;10.68;;;8.20;99.90;;;;;;6157434;23;20146;-78
2021/01/26 11:45:49;;;;;;;9.20;7.15;;;8.30;99.90;;;;;;6183763;23;20145;-80
2021/01/26 11:48:16;;;;;;;8.48;4.90;;;8.40;99.90;;;;;;6183953;23;20265;-79
2021/01/26 11:50:42;;;;;;;10.48;4.65;;;8.40;99.90;;;;;;6157577;23;20160;-79
2021/01/26 11:53:11;;;;;;;10.20;4.35;;;8.50;99.90;;;;;;6157129;23;20256;-78
2021/01/26 11:55:38;;;;;;;7.70;4.13;;;8.50;99.90;;;;;;6183634;23;20149;-79
2021/01/26 11:58:05;;;;;;;11.55;6.20;;;8.40;99.90;;;;;;6157308;23;20176;-78
2021/01/26 12:00:34;;;;;;;9.10;3.90;;;8.40;99.90;;;;;;6186949;23;20148;-78
2021/01/26 12:03:01;;;;;;;5.60;4.22;;;8.40;99.90;;;;;;6157087;23;20154;-78
2021/01/26 12:05:31;;;;;;;10.18;3.78;;;8.40;99.90;;;;;;6157270;23;20150;-79
2021/01/26 12:07:56;;;;;;;7.00;4.18;;;8.30;99.90;;;;;;6183817;23;20635;-77
2021/01/26 12:10:26;;;;;;;9.43;4.37;;;8.30;99.90;;;;;;6132980;23;20172;-80
2021/01/26 12:12:53;;;;;;;7.53;4.18;;;8.20;99.90;;;;;;6182910;23;20668;-77
2021/01/26 12:15:28;;;;;;;7.10;4.30;;;8.20;99.90;;;;;;6183793;23;20146;-78
2021/01/26 12:17:54;;;;;;;7.43;4.57;;;8.10;99.90;;;;;;6183624;23;20165;-78
2021/01/26 12:20:21;;;;;;;8.70;4.23;;;8.10;99.90;;;;;;6183809;23;20156;-79
2021/01/26 12:22:47;;;;;;;6.75;3.88;;;8.00;99.90;;;;;;6182916;23;20529;-78
2021/01/26 12:25:15;;;;;;;6.25;3.75;;;8.00;99.90;;;;;;6183657;23;20165;-77
2021/01/26 12:27:41;;;;;;;11.73;5.85;;;7.90;99.90;;;;;;6182979;23;20188;-77
2021/01/26 12:30:08;;;;;;;9.27;5.67;;;7.90;99.90;;;;;;6157751;23;20173;-78
2021/01/26 12:32:33;;;;;;;7.50;4.60;;;7.90;99.90;;;;;;6156765;23;20177;-77
2021/01/26 12:35:01;;;;;;;7.20;5.80;;;8.00;99.90;;;;;;6184072;23;20146;-79
2021/01/26 12:37:27;;;;;;;13.45;5.95;;;7.90;99.90;;;;;;6185709;23;20592;-79
2021/01/26 12:39:52;;;;;;;7.73;5.20;;;7.90;99.90;;;;;;6186749;23;20142;-78
2021/01/26 12:42:18;;;;;;;9.50;4.13;;;7.90;99.90;;;;;;6185309;23;20149;-77
2021/01/26 12:44:45;;;;;;;8.20;3.60;;;7.90;99.90;;;;;;6184610;23;20869;-79
2021/01/26 12:47:11;;;;;;;8.93;3.58;;;7.90;99.90;;;;;;6184251;23;20572;-79
2021/01/26 12:49:37;;;;;;;3.30;2.57;;;7.90;99.90;;;;;;6183305;23;20483;-80
2021/01/26 12:52:03;;;;;;;5.80;3.23;;;8.00;99.90;;;;;;6182856;23;20620;-79
2021/01/26 12:54:29;;;;;;;6.28;3.55;;;8.10;99.90;;;;;;6183797;23;20521;-78
2021/01/26 12:56:55;;;;;;;9.93;4.80;;;8.10;99.90;;;;;;6158155;23;20172;-78
2021/01/26 12:59:21;;;;;;;8.13;3.90;;;8.10;99.90;;;;;;6184358;23;20600;-78
2021/01/26 13:01:47;;;;;;;4.73;3.07;;;8.20;99.90;;;;;;6188238;23;20892;-78
2021/01/26 13:04:12;;;;;;;9.87;4.50;;;8.20;99.90;;;;;;6184711;23;20526;-78
2021/01/26 13:06:39;;;;;;;9.93;4.20;;;8.20;99.90;;;;;;6187824;23;20626;-79
2021/01/26 13:09:06;;;;;;;7.97;5.13;;;8.30;99.90;;;;;;6189755;23;20130;-79
2021/01/26 13:11:33;;;;;;;9.70;4.20;;;8.40;99.90;;;;;;6187072;23;20169;-79
2021/01/26 13:14:00;;;;;;;11.05;4.93;;;8.40;99.90;;;;;;6186704;23;20146;-81
2021/01/26 13:16:28;;;;;;;8.07;5.07;;;8.50;99.90;;;;;;6187454;23;20150;-80
2021/01/26 13:18:54;;;;;;;7.20;3.95;;;8.50;99.90;;;;;;6186546;23;20138;-81
2021/01/26 13:21:20;;;;;;;7.43;3.90;;;8.50;99.90;;;;;;6135226;23;20204;-79
2021/01/26 13:23:46;;;;;;;10.37;5.10;;;8.50;99.90;;;;;;6182420;23;20145;-80
2021/01/26 13:26:12;;;;;;;8.53;4.00;;;8.50;99.90;;;;;;6182870;23;20152;-79
2021/01/26 13:28:38;;;;;;;4.20;2.80;;;8.60;99.90;;;;;;6182960;23;20608;-80
2021/01/26 13:31:04;;;;;;;6.30;3.70;;;8.70;99.90;;;;;;6157435;23;21104;-79
2021/01/26 13:33:30;;;;;;;7.65;3.80;;;8.70;99.90;;;;;;6183524;23;20652;-80
2021/01/26 13:35:56;;;;;;;4.10;2.85;;;8.70;99.90;;;;;;6184463;23;20146;-80
2021/01/26 13:38:22;;;;;;;5.10;3.20;;;8.80;99.90;;;;;;6185647;23;20184;-80
2021/01/26 13:40:48;;;;;;;6.13;3.50;;;8.80;99.90;;;;;;6185210;23;20529;-79
2021/01/26 13:43:13;;;;;;;7.03;3.60;;;8.80;99.90;;;;;;6157387;23;20557;-79
2021/01/26 13:45:39;;;;;;;5.23;3.33;;;8.90;99.90;;;;;;6157896;23;20173;-79
2021/01/26 13:48:05;;;;;;;4.50;3.27;;;8.90;99.90;;;;;;6183516;23;20571;-78
2021/01/26 13:50:34;;;;;;;5.57;3.47;;;9.00;99.90;;;;;;6182432;23;20549;-79
2021/01/26 13:53:00;;;;;;;4.68;2.95;;;9.00;99.90;;;;;;6163990;23;20169;-79
2021/01/26 13:55:28;;;;;;;6.97;2.93;;;9.00;99.90;;;;;;6187108;23;20138;-79
2021/01/26 13:57:55;;;;;;;5.95;2.75;;;9.00;99.90;;;;;;6185919;23;20562;-78
2021/01/26 14:00:22;;;;;;;7.80;3.10;;;9.00;99.90;;;;;;6159256;23;20232;-79
2021/01/26 14:02:50;;;;;;;4.88;2.97;;;8.90;99.90;;;;;;6186302;23;20507;-78
2021/01/26 14:05:16;;;;;;;5.95;4.22;;;8.90;99.90;;;;;;6160596;23;20154;-79
2021/01/26 14:07:42;;;;;;;4.60;3.35;;;8.90;99.90;;;;;;6159240;23;20169;-79
2021/01/26 14:10:09;;;;;;;5.85;4.45;;;8.80;99.90;;;;;;6186140;23;20157;-79
2021/01/26 14:12:35;;;;;;;10.63;3.85;;;8.80;99.90;;;;;;6186335;23;20553;-79
2021/01/26 14:15:06;;;;;;;6.07;4.25;;;8.80;99.90;;;;;;6154531;23;20161;-78
2021/01/26 14:17:32;;;;;;;8.10;3.28;;;8.80;99.90;;;;;;6184038;23;20658;-82
2021/01/26 14:19:59;;;;;;;7.15;2.92;;;8.80;99.90;;;;;;6135991;23;20458;-80
2021/01/26 14:22:24;;;;;;;4.57;2.87;;;8.70;99.90;;;;;;6184766;23;20204;-77
2021/01/26 14:24:51;;;;;;;4.50;2.87;;;8.70;99.90;;;;;;6186130;23;20549;-78
2021/01/26 14:27:18;;;;;;;6.90;4.72;;;8.70;99.90;;;;;;6184165;23;21184;-78
2021/01/26 14:29:48;;;;;;;10.77;6.00;;;8.70;99.90;;;;;;6187833;23;20195;-78
2021/01/26 14:32:14;;;;;;;9.38;4.80;;;8.70;99.90;;;;;;6185283;23;20165;-78
2021/01/26 14:34:40;;;;;;;5.65;3.55;;;8.70;99.90;;;;;;6182978;23;20460;-80
2021/01/26 14:37:07;;;;;;;4.75;3.78;;;8.70;99.90;;;;;;6156756;23;20518;-79
2021/01/26 14:39:38;;;;;;;5.18;3.65;;;8.60;99.90;;;;;;6156742;23;20141;-79
2021/01/26 14:42:04;;;;;;;8.38;4.75;;;8.60;99.90;;;;;;6186138;23;20615;-80
2021/01/26 14:44:30;;;;;;;5.40;3.53;;;8.60;99.90;;;;;;6183948;23;20141;-80
2021/01/26 14:46:57;;;;;;;5.00;3.40;;;8.50;99.90;;;;;;6183172;23;20876;-79
2021/01/26 14:49:23;;;;;;;5.57;3.55;;;8.50;99.90;;;;;;6157868;23;20556;-79
2021/01/26 14:51:48;;;;;;;7.70;4.70;;;8.50;99.90;;;;;;6184157;23;20146;-79
2021/01/26 14:54:14;;;;;;;6.37;5.13;;;8.50;99.90;;;;;;6182220;23;20206;-79
2021/01/26 14:56:40;;;;;;;8.83;5.70;;;8.40;99.90;;;;;;6182835;23;20557;-79
2021/01/26 14:59:06;;;;;;;10.53;6.00;;;8.40;99.90;;;;;;6158786;23;20169;-79
2021/01/26 15:01:32;;;;;;;8.23;3.90;;;8.40;99.90;;;;;;6187601;23;20152;-80
2021/01/26 15:03:58;;;;;;;5.90;2.90;;;8.40;99.90;;;;;;6184831;23;20201;-80
2021/01/26 15:06:25;;;;;;;6.07;4.03;;;8.40;99.90;;;;;;6189507;23;20157;-80
2021/01/26 15:08:50;;;;;;;5.32;3.90;;;8.40;99.90;;;;;;6158585;23;20141;-79
2021/01/26 15:11:17;;;;;;;5.93;3.20;;;8.30;99.90;;;;;;6189297;23;20157;-80
2021/01/26 15:13:42;;;;;;;4.40;3.35;;;8.40;99.90;;;;;;6183819;23;20615;-80
2021/01/26 15:16:08;;;;;;;7.23;2.60;;;8.40;99.90;;;;;;6184508;23;20146;-79
2021/01/26 15:18:46;;;;;;;9.18;3.60;;;8.40;99.90;;;;;;6186095;23;20825;-80
2021/01/26 15:21:18;;;;;;;3.50;2.37;;;8.40;99.90;;;;;;6190018;23;20142;-80
2021/01/26 15:23:47;;;;;;;3.13;2.83;;;8.40;99.90;;;;;;6163954;23;20137;-78
2021/01/26 15:26:17;;;;;;;11.15;3.20;;;8.30;99.90;;;;;;6186671;23;20216;-78
2021/01/26 15:28:43;;;;;;;6.60;3.28;;;8.30;99.90;;;;;;6186068;23;20149;-79
2021/01/26 15:31:09;;;;;;;7.13;4.25;;;8.30;99.90;;;;;;6185150;23;20642;-80
2021/01/26 15:33:35;;;;;;;6.22;2.60;;;8.30;99.90;;;;;;6110250;23;20669;-80
